sensor_id;sensor_type;location;lat;lon;timestamp;pressure;altitude;pressure_sealevel;temperature;humidity
10652;BME280;5374;42.742;23.266;2023-02-21T00:01:37;95887.47;;;5.08;66.59
10652;BME280;5374;42.742;23.266;2023-02-21T00:04:42;95814.44;;;4.51;66.63
10652;BME280;5374;42.742;23.266;2023-02-21T00:07:48;95786.72;;;4.41;66.83
10652;BME280;5374;42.742;23.266;2023-02-21T00:10:53;95883.59;;;4.97;66.81
10652;BME280;5374;42.742;23.266;2023-02-21T00:13:57;95798.47;;;4.26;66.76
10652;BME280;5374;42.742;23.266;2023-02-21T00:17:02;95739.81;;;4.05;66.61
10652;BME280;5374;42.742;23.266;2023-02-21T00:20:07;95815.25;;;4.51;66.72
10652;BME280;5374;42.742;23.266;2023-02-21T00:23:13;95790.16;;;4.42;66.74
10652;BME280;5374;42.742;23.266;2023-02-21T00:26:19;95873.50;;;4.88;66.82
10652;BME280;5374;42.742;23.266;2023-02-21T00:29:24;95857.13;;;4.86;66.74
10652;BME280;5374;42.742;23.266;2023-02-21T00:32:29;95864.59;;;4.89;66.55
10652;BME280;5374;42.742;23.266;2023-02-21T00:35:33;95822.72;;;4.61;66.75
10652;BME280;5374;42.742;23.266;2023-02-21T00:38:39;95871.69;;;4.95;66.54
10652;BME280;5374;42.742;23.266;2023-02-21T00:41:44;95857.72;;;4.88;66.77
10652;BME280;5374;42.742;23.266;2023-02-21T00:44:58;95811.00;;;4.50;66.89
10652;BME280;5374;42.742;23.266;2023-02-21T00:48:03;95774.78;;;4.32;67.07
10652;BME280;5374;42.742;23.266;2023-02-21T00:51:07;95848.81;;;4.75;67.39
10652;BME280;5374;42.742;23.266;2023-02-21T00:54:13;95830.59;;;4.54;67.67
10652;BME280;5374;42.742;23.266;2023-02-21T00:57:18;95719.56;;;3.86;67.82
10652;BME280;5374;42.742;23.266;2023-02-21T01:00:25;95819.69;;;4.77;68.07
10652;BME280;5374;42.742;23.266;2023-02-21T01:03:30;95753.56;;;4.34;68.22
10652;BME280;5374;42.742;23.266;2023-02-21T01:06:34;95803.28;;;4.81;68.63
10652;BME280;5374;42.742;23.266;2023-02-21T01:09:40;95729.50;;;4.43;68.78
10652;BME280;5374;42.742;23.266;2023-02-21T01:12:44;95718.78;;;4.45;68.75
10652;BME280;5374;42.742;23.266;2023-02-21T01:15:49;95704.81;;;4.44;68.44
10652;BME280;5374;42.742;23.266;2023-02-21T01:18:54;95795.34;;;5.01;68.29
10652;BME280;5374;42.742;23.266;2023-02-21T01:21:59;95769.91;;;4.82;68.21
10652;BME280;5374;42.742;23.266;2023-02-21T01:25:06;95790.69;;;5.03;68.56
10652;BME280;5374;42.742;23.266;2023-02-21T01:28:13;95749.91;;;4.61;68.93
10652;BME280;5374;42.742;23.266;2023-02-21T01:31:19;95727.63;;;4.70;68.90
10652;BME280;5374;42.742;23.266;2023-02-21T01:34:24;95745.19;;;4.90;68.63
10652;BME280;5374;42.742;23.266;2023-02-21T01:37:29;95666.03;;;4.27;68.56
10652;BME280;5374;42.742;23.266;2023-02-21T01:40:36;95738.72;;;4.86;68.13
10652;BME280;5374;42.742;23.266;2023-02-21T01:43:58;95661.72;;;4.52;67.72
10652;BME280;5374;42.742;23.266;2023-02-21T01:47:03;95717.88;;;4.84;67.76
10652;BME280;5374;42.742;23.266;2023-02-21T01:50:14;95739.69;;;4.98;67.87
10652;BME280;5374;42.742;23.266;2023-02-21T01:53:22;95689.22;;;4.56;67.58
10652;BME280;5374;42.742;23.266;2023-02-21T01:56:30;95733.19;;;5.07;67.46
10652;BME280;5374;42.742;23.266;2023-02-21T01:59:35;95753.78;;;5.23;67.39
10652;BME280;5374;42.742;23.266;2023-02-21T02:02:47;95704.50;;;4.92;67.12
10652;BME280;5374;42.742;23.266;2023-02-21T02:05:56;95660.88;;;4.71;66.95
10652;BME280;5374;42.742;23.266;2023-02-21T02:09:16;95683.41;;;4.99;66.61
10652;BME280;5374;42.742;23.266;2023-02-21T02:12:51;95668.84;;;5.03;66.29
10652;BME280;5374;42.742;23.266;2023-02-21T02:15:48;95725.38;;;5.38;66.83
10652;BME280;5374;42.742;23.266;2023-02-21T02:19:02;95634.78;;;4.63;67.00
10652;BME280;5374;42.742;23.266;2023-02-21T02:22:12;95722.19;;;5.23;66.54
10652;BME280;5374;42.742;23.266;2023-02-21T02:25:28;95635.81;;;4.62;66.94
10652;BME280;5374;42.742;23.266;2023-02-21T02:28:36;95699.81;;;5.01;67.68
10652;BME280;5374;42.742;23.266;2023-02-21T02:31:41;95658.84;;;4.67;67.83
10652;BME280;5374;42.742;23.266;2023-02-21T02:34:49;95727.88;;;5.20;67.80
10652;BME280;5374;42.742;23.266;2023-02-21T02:37:43;95665.31;;;4.71;67.67
10652;BME280;5374;42.742;23.266;2023-02-21T02:40:35;95728.25;;;5.24;67.62
10652;BME280;5374;42.742;23.266;2023-02-21T02:43:30;95743.25;;;5.23;67.61
10652;BME280;5374;42.742;23.266;2023-02-21T02:46:22;95652.13;;;4.84;67.52
10652;BME280;5374;42.742;23.266;2023-02-21T02:49:13;95683.81;;;5.02;67.17
10652;BME280;5374;42.742;23.266;2023-02-21T02:52:06;95714.50;;;5.22;67.21
10652;BME280;5374;42.742;23.266;2023-02-21T02:54:58;95719.31;;;5.38;67.07
10652;BME280;5374;42.742;23.266;2023-02-21T02:57:45;95675.91;;;5.02;67.01
10652;BME280;5374;42.742;23.266;2023-02-21T03:00:35;95717.88;;;5.42;66.85
10652;BME280;5374;42.742;23.266;2023-02-21T03:03:45;95694.03;;;5.30;66.93
10652;BME280;5374;42.742;23.266;2023-02-21T03:06:44;95647.97;;;5.01;66.83
10652;BME280;5374;42.742;23.266;2023-02-21T03:09:46;95712.25;;;5.32;66.67
10652;BME280;5374;42.742;23.266;2023-02-21T03:12:42;95704.66;;;5.48;66.48
10652;BME280;5374;42.742;23.266;2023-02-21T03:15:36;95730.16;;;5.55;66.36
10652;BME280;5374;42.742;23.266;2023-02-21T03:18:27;95709.50;;;5.52;66.41
10652;BME280;5374;42.742;23.266;2023-02-21T03:21:19;95689.34;;;5.32;66.54
10652;BME280;5374;42.742;23.266;2023-02-21T03:24:10;95689.06;;;5.09;66.53
10652;BME280;5374;42.742;23.266;2023-02-21T03:27:03;95644.53;;;5.01;66.17
10652;BME280;5374;42.742;23.266;2023-02-21T03:29:54;95568.31;;;4.43;66.44
10652;BME280;5374;42.742;23.266;2023-02-21T03:32:46;95625.66;;;4.72;67.03
10652;BME280;5374;42.742;23.266;2023-02-21T03:35:34;95624.47;;;4.68;66.96
10652;BME280;5374;42.742;23.266;2023-02-21T03:38:21;95630.97;;;4.59;66.88
10652;BME280;5374;42.742;23.266;2023-02-21T03:41:10;95665.50;;;4.76;66.95
10652;BME280;5374;42.742;23.266;2023-02-21T03:43:59;95690.34;;;4.87;66.96
10652;BME280;5374;42.742;23.266;2023-02-21T03:46:46;95633.56;;;4.66;66.62
10652;BME280;5374;42.742;23.266;2023-02-21T03:49:33;95721.44;;;5.09;66.87
10652;BME280;5374;42.742;23.266;2023-02-21T03:52:22;95717.41;;;5.07;66.72
10652;BME280;5374;42.742;23.266;2023-02-21T03:55:09;95666.50;;;4.75;66.61
10652;BME280;5374;42.742;23.266;2023-02-21T03:57:57;95646.78;;;4.46;66.66
10652;BME280;5374;42.742;23.266;2023-02-21T04:00:45;95675.28;;;4.49;66.84
10652;BME280;5374;42.742;23.266;2023-02-21T04:03:33;95720.31;;;4.92;67.13
10652;BME280;5374;42.742;23.266;2023-02-21T04:06:25;95716.25;;;4.83;67.84
10652;BME280;5374;42.742;23.266;2023-02-21T04:09:13;95714.25;;;4.78;67.89
10652;BME280;5374;42.742;23.266;2023-02-21T04:12:00;95673.69;;;4.48;68.10
10652;BME280;5374;42.742;23.266;2023-02-21T04:14:47;95673.88;;;4.46;68.38
10652;BME280;5374;42.742;23.266;2023-02-21T04:17:37;95636.72;;;4.23;68.03
10652;BME280;5374;42.742;23.266;2023-02-21T04:20:24;95712.28;;;4.67;68.17
10652;BME280;5374;42.742;23.266;2023-02-21T04:23:15;95696.13;;;4.44;68.12
10652;BME280;5374;42.742;23.266;2023-02-21T04:26:05;95686.22;;;4.46;67.86
10652;BME280;5374;42.742;23.266;2023-02-21T04:28:52;95658.53;;;4.30;68.09
10652;BME280;5374;42.742;23.266;2023-02-21T04:31:39;95687.22;;;4.52;68.03
10652;BME280;5374;42.742;23.266;2023-02-21T04:34:28;95750.25;;;4.85;67.89
10652;BME280;5374;42.742;23.266;2023-02-21T04:37:16;95755.13;;;4.88;68.32
10652;BME280;5374;42.742;23.266;2023-02-21T04:40:18;95708.25;;;4.45;68.03
10652;BME280;5374;42.742;23.266;2023-02-21T04:43:06;95756.31;;;4.92;67.77
10652;BME280;5374;42.742;23.266;2023-02-21T04:45:53;95750.25;;;4.85;67.58
10652;BME280;5374;42.742;23.266;2023-02-21T04:48:59;95642.38;;;4.20;67.39
10652;BME280;5374;42.742;23.266;2023-02-21T04:52:03;95749.66;;;4.96;66.98
10652;BME280;5374;42.742;23.266;2023-02-21T04:55:23;95756.31;;;4.92;67.12
10652;BME280;5374;42.742;23.266;2023-02-21T04:58:20;95598.16;;;3.84;67.16
10652;BME280;5374;42.742;23.266;2023-02-21T05:01:26;95707.41;;;4.64;67.34
10652;BME280;5374;42.742;23.266;2023-02-21T05:04:25;95631.69;;;3.95;67.28
10652;BME280;5374;42.742;23.266;2023-02-21T05:07:58;95591.50;;;3.82;67.39
10652;BME280;5374;42.742;23.266;2023-02-21T05:11:27;95681.97;;;4.32;68.06
10652;BME280;5374;42.742;23.266;2023-02-21T05:14:51;95615.13;;;3.68;68.17
10652;BME280;5374;42.742;23.266;2023-02-21T05:18:10;95686.22;;;4.39;67.96
10652;BME280;5374;42.742;23.266;2023-02-21T05:20:59;95700.75;;;4.55;68.12
10652;BME280;5374;42.742;23.266;2023-02-21T05:23:48;95720.16;;;4.67;67.95
10652;BME280;5374;42.742;23.266;2023-02-21T05:26:41;95713.88;;;4.62;67.87
10652;BME280;5374;42.742;23.266;2023-02-21T05:29:28;95720.34;;;4.72;67.65
10652;BME280;5374;42.742;23.266;2023-02-21T05:32:16;95687.22;;;4.52;67.41
10652;BME280;5374;42.742;23.266;2023-02-21T05:35:05;95724.00;;;4.71;67.55
10652;BME280;5374;42.742;23.266;2023-02-21T05:37:52;95725.56;;;4.79;67.43
10652;BME280;5374;42.742;23.266;2023-02-21T05:40:41;95719.03;;;5.01;67.09
10652;BME280;5374;42.742;23.266;2023-02-21T05:43:30;95708.94;;;5.43;65.24
10652;BME280;5374;42.742;23.266;2023-02-21T05:46:22;95735.78;;;5.65;64.66
10652;BME280;5374;42.742;23.266;2023-02-21T05:49:10;95724.19;;;5.66;64.06
10652;BME280;5374;42.742;23.266;2023-02-21T05:51:57;95736.25;;;5.48;64.80
10652;BME280;5374;42.742;23.266;2023-02-21T05:54:44;95731.47;;;5.39;65.72
10652;BME280;5374;42.742;23.266;2023-02-21T05:57:38;95741.56;;;5.42;65.68
10652;BME280;5374;42.742;23.266;2023-02-21T06:00:27;95745.97;;;5.55;65.95
10652;BME280;5374;42.742;23.266;2023-02-21T06:03:30;95744.28;;;6.05;65.10
10652;BME280;5374;42.742;23.266;2023-02-21T06:06:18;95751.81;;;8.62;58.97
10652;BME280;5374;42.742;23.266;2023-02-21T06:09:05;95743.22;;;13.31;46.63
10652;BME280;5374;42.742;23.266;2023-02-21T06:11:55;95727.56;;;17.77;37.19
10652;BME280;5374;42.742;23.266;2023-02-21T06:14:43;95736.66;;;21.11;31.79
10652;BME280;5374;42.742;23.266;2023-02-21T06:17:30;95748.72;;;23.36;28.18
10652;BME280;5374;42.742;23.266;2023-02-21T06:20:18;95747.16;;;25.36;24.88
10652;BME280;5374;42.742;23.266;2023-02-21T06:23:05;95747.97;;;27.11;23.24
10652;BME280;5374;42.742;23.266;2023-02-21T06:25:52;95741.00;;;28.71;21.54
10652;BME280;5374;42.742;23.266;2023-02-21T06:28:39;95750.97;;;30.54;20.07
10652;BME280;5374;42.742;23.266;2023-02-21T06:31:27;95756.03;;;31.79;18.61
10652;BME280;5374;42.742;23.266;2023-02-21T06:34:15;95760.69;;;32.19;18.17
10652;BME280;5374;42.742;23.266;2023-02-21T06:37:02;95757.63;;;31.47;18.07
10652;BME280;5374;42.742;23.266;2023-02-21T06:39:49;95729.06;;;31.14;18.52
10652;BME280;5374;42.742;23.266;2023-02-21T06:42:37;95754.00;;;31.73;18.11
10652;BME280;5374;42.742;23.266;2023-02-21T06:45:24;95759.88;;;29.76;19.34
10652;BME280;5374;42.742;23.266;2023-02-21T06:48:14;95763.09;;;30.53;18.70
10652;BME280;5374;42.742;23.266;2023-02-21T06:51:02;95752.03;;;30.46;18.79
10652;BME280;5374;42.742;23.266;2023-02-21T06:53:56;95749.66;;;30.18;19.18
10652;BME280;5374;42.742;23.266;2023-02-21T06:56:43;95737.97;;;27.74;20.48
10652;BME280;5374;42.742;23.266;2023-02-21T06:59:31;95748.91;;;26.90;21.61
10652;BME280;5374;42.742;23.266;2023-02-21T07:02:19;95763.38;;;27.19;21.73
10652;BME280;5374;42.742;23.266;2023-02-21T07:05:08;95767.88;;;26.59;21.91
10652;BME280;5374;42.742;23.266;2023-02-21T07:07:55;95759.25;;;25.27;23.47
10652;BME280;5374;42.742;23.266;2023-02-21T07:10:42;95758.09;;;23.56;25.31
10652;BME280;5374;42.742;23.266;2023-02-21T07:13:29;95749.03;;;23.35;25.41
10652;BME280;5374;42.742;23.266;2023-02-21T07:16:16;95746.19;;;23.31;25.40
10652;BME280;5374;42.742;23.266;2023-02-21T07:19:04;95748.94;;;24.07;24.92
10652;BME280;5374;42.742;23.266;2023-02-21T07:21:52;95745.97;;;24.50;24.88
10652;BME280;5374;42.742;23.266;2023-02-21T07:24:39;95754.22;;;22.93;25.98
10652;BME280;5374;42.742;23.266;2023-02-21T07:27:27;95737.84;;;21.19;28.06
10652;BME280;5374;42.742;23.266;2023-02-21T07:30:15;95739.94;;;19.92;30.13
10652;BME280;5374;42.742;23.266;2023-02-21T07:33:03;95734.56;;;18.72;32.13
10652;BME280;5374;42.742;23.266;2023-02-21T07:35:50;95741.78;;;17.77;32.98
10652;BME280;5374;42.742;23.266;2023-02-21T07:38:39;95729.69;;;16.98;34.43
10652;BME280;5374;42.742;23.266;2023-02-21T07:41:26;95738.66;;;16.50;35.91
10652;BME280;5374;42.742;23.266;2023-02-21T07:44:13;95729.63;;;15.96;36.36
10652;BME280;5374;42.742;23.266;2023-02-21T07:47:00;95721.41;;;15.78;36.85
10652;BME280;5374;42.742;23.266;2023-02-21T07:49:48;95723.97;;;16.03;37.12
10652;BME280;5374;42.742;23.266;2023-02-21T07:52:35;95713.19;;;16.13;37.16
10652;BME280;5374;42.742;23.266;2023-02-21T07:55:23;95718.50;;;16.23;36.95
10652;BME280;5374;42.742;23.266;2023-02-21T07:58:10;95685.47;;;15.89;37.24
10652;BME280;5374;42.742;23.266;2023-02-21T08:00:57;95706.59;;;15.95;37.93
10652;BME280;5374;42.742;23.266;2023-02-21T08:03:44;95699.75;;;16.18;37.29
10652;BME280;5374;42.742;23.266;2023-02-21T08:06:33;95691.56;;;16.38;37.73
10652;BME280;5374;42.742;23.266;2023-02-21T08:09:20;95696.19;;;16.67;37.84
10652;BME280;5374;42.742;23.266;2023-02-21T08:12:09;95694.66;;;16.90;37.07
10652;BME280;5374;42.742;23.266;2023-02-21T08:14:56;95684.97;;;16.94;36.85
10652;BME280;5374;42.742;23.266;2023-02-21T08:17:46;95688.94;;;16.96;36.85
10652;BME280;5374;42.742;23.266;2023-02-21T08:20:34;95683.31;;;17.22;36.20
10652;BME280;5374;42.742;23.266;2023-02-21T08:23:22;95676.50;;;17.53;36.42
10652;BME280;5374;42.742;23.266;2023-02-21T08:26:10;95683.47;;;17.78;34.76
10652;BME280;5374;42.742;23.266;2023-02-21T08:28:58;95685.72;;;18.08;35.36
10652;BME280;5374;42.742;23.266;2023-02-21T08:31:45;95655.28;;;18.32;34.69
10652;BME280;5374;42.742;23.266;2023-02-21T08:34:33;95653.22;;;18.61;34.46
10652;BME280;5374;42.742;23.266;2023-02-21T08:37:20;95657.88;;;19.02;32.93
10652;BME280;5374;42.742;23.266;2023-02-21T08:40:08;95628.78;;;18.90;31.48
10652;BME280;5374;42.742;23.266;2023-02-21T08:42:56;95651.72;;;19.29;30.11
10652;BME280;5374;42.742;23.266;2023-02-21T08:45:45;95665.78;;;19.26;30.20
10652;BME280;5374;42.742;23.266;2023-02-21T08:48:32;95657.63;;;19.17;30.67
10652;BME280;5374;42.742;23.266;2023-02-21T08:51:23;95654.91;;;19.31;30.46
10652;BME280;5374;42.742;23.266;2023-02-21T08:54:10;95669.50;;;19.57;30.18
10652;BME280;5374;42.742;23.266;2023-02-21T08:56:58;95662.09;;;19.49;29.54
10652;BME280;5374;42.742;23.266;2023-02-21T08:59:45;95656.69;;;19.49;29.34
10652;BME280;5374;42.742;23.266;2023-02-21T09:02:34;95670.47;;;19.47;30.48
10652;BME280;5374;42.742;23.266;2023-02-21T09:05:24;95656.53;;;19.18;31.98
10652;BME280;5374;42.742;23.266;2023-02-21T09:08:11;95656.19;;;19.06;31.68
10652;BME280;5374;42.742;23.266;2023-02-21T09:10:59;95654.00;;;18.94;31.35
10652;BME280;5374;42.742;23.266;2023-02-21T09:13:47;95655.84;;;18.80;31.81
10652;BME280;5374;42.742;23.266;2023-02-21T09:16:34;95652.13;;;19.08;32.26
10652;BME280;5374;42.742;23.266;2023-02-21T09:19:22;95658.78;;;19.25;30.15
10652;BME280;5374;42.742;23.266;2023-02-21T09:22:10;95651.84;;;19.37;30.97
10652;BME280;5374;42.742;23.266;2023-02-21T09:24:57;95645.13;;;19.48;30.03
10652;BME280;5374;42.742;23.266;2023-02-21T09:27:44;95640.88;;;19.61;29.35
10652;BME280;5374;42.742;23.266;2023-02-21T09:30:32;95645.81;;;19.82;29.11
10652;BME280;5374;42.742;23.266;2023-02-21T09:33:19;95633.44;;;19.80;28.65
10652;BME280;5374;42.742;23.266;2023-02-21T09:36:09;95641.47;;;19.94;28.34
10652;BME280;5374;42.742;23.266;2023-02-21T09:38:56;95624.03;;;19.92;29.68
10652;BME280;5374;42.742;23.266;2023-02-21T09:41:44;95616.97;;;19.82;29.05
10652;BME280;5374;42.742;23.266;2023-02-21T09:44:31;95628.59;;;20.05;28.87
10652;BME280;5374;42.742;23.266;2023-02-21T09:47:26;95619.63;;;20.18;29.35
10652;BME280;5374;42.742;23.266;2023-02-21T09:50:15;95618.94;;;20.48;29.21
10652;BME280;5374;42.742;23.266;2023-02-21T09:53:07;95605.44;;;20.26;28.10
10652;BME280;5374;42.742;23.266;2023-02-21T09:55:58;95612.31;;;20.55;27.69
10652;BME280;5374;42.742;23.266;2023-02-21T09:58:46;95609.69;;;20.41;27.57
10652;BME280;5374;42.742;23.266;2023-02-21T10:01:46;95606.56;;;20.47;27.87
10652;BME280;5374;42.742;23.266;2023-02-21T10:04:52;95601.25;;;20.65;27.51
10652;BME280;5374;42.742;23.266;2023-02-21T10:07:46;95612.22;;;20.68;27.80
10652;BME280;5374;42.742;23.266;2023-02-21T10:10:42;95598.06;;;20.63;27.11
10652;BME280;5374;42.742;23.266;2023-02-21T10:13:37;95600.94;;;20.66;27.26
10652;BME280;5374;42.742;23.266;2023-02-21T10:16:28;95585.84;;;20.65;27.89
10652;BME280;5374;42.742;23.266;2023-02-21T10:19:21;95580.28;;;20.62;27.52
10652;BME280;5374;42.742;23.266;2023-02-21T10:22:14;95580.66;;;20.69;27.47
10652;BME280;5374;42.742;23.266;2023-02-21T10:25:19;95580.91;;;20.90;27.73
10652;BME280;5374;42.742;23.266;2023-02-21T10:28:15;95573.63;;;20.99;26.93
10652;BME280;5374;42.742;23.266;2023-02-21T10:31:07;95569.53;;;21.10;26.48
10652;BME280;5374;42.742;23.266;2023-02-21T10:33:55;95564.06;;;21.24;26.96
10652;BME280;5374;42.742;23.266;2023-02-21T10:36:44;95563.56;;;21.22;27.06
10652;BME280;5374;42.742;23.266;2023-02-21T10:39:35;95558.97;;;21.31;26.97
10652;BME280;5374;42.742;23.266;2023-02-21T10:42:30;95560.38;;;21.20;26.53
10652;BME280;5374;42.742;23.266;2023-02-21T10:45:20;95554.13;;;21.10;27.16
10652;BME280;5374;42.742;23.266;2023-02-21T10:48:11;95546.38;;;21.17;27.33
10652;BME280;5374;42.742;23.266;2023-02-21T10:51:07;95538.47;;;21.21;27.39
10652;BME280;5374;42.742;23.266;2023-02-21T10:54:18;95529.38;;;21.17;27.17
10652;BME280;5374;42.742;23.266;2023-02-21T10:57:07;95531.75;;;21.19;27.94
10652;BME280;5374;42.742;23.266;2023-02-21T10:59:56;95527.38;;;20.92;26.79
10652;BME280;5374;42.742;23.266;2023-02-21T11:02:46;95522.03;;;21.00;26.65
10652;BME280;5374;42.742;23.266;2023-02-21T11:05:37;95510.53;;;20.86;27.05
10652;BME280;5374;42.742;23.266;2023-02-21T11:08:34;95506.59;;;20.92;28.23
10652;BME280;5374;42.742;23.266;2023-02-21T11:11:37;95508.84;;;20.99;27.87
10652;BME280;5374;42.742;23.266;2023-02-21T11:14:25;95499.00;;;21.11;27.21
10652;BME280;5374;42.742;23.266;2023-02-21T11:17:15;95495.16;;;21.04;27.33
10652;BME280;5374;42.742;23.266;2023-02-21T11:20:16;95495.19;;;21.12;26.93
10652;BME280;5374;42.742;23.266;2023-02-21T11:23:03;95488.84;;;21.17;26.44
10652;BME280;5374;42.742;23.266;2023-02-21T11:25:58;95481.06;;;21.15;27.16
10652;BME280;5374;42.742;23.266;2023-02-21T11:28:46;95450.25;;;21.16;27.15
10652;BME280;5374;42.742;23.266;2023-02-21T11:31:33;95472.34;;;21.27;27.42
10652;BME280;5374;42.742;23.266;2023-02-21T11:34:27;95467.13;;;21.31;26.95
10652;BME280;5374;42.742;23.266;2023-02-21T11:37:16;95456.03;;;21.41;26.85
10652;BME280;5374;42.742;23.266;2023-02-21T11:40:05;95460.75;;;21.27;26.54
10652;BME280;5374;42.742;23.266;2023-02-21T11:43:22;95456.41;;;21.08;26.92
10652;BME280;5374;42.742;23.266;2023-02-21T11:46:16;95448.16;;;20.96;26.24
10652;BME280;5374;42.742;23.266;2023-02-21T11:49:10;95438.16;;;20.97;26.55
10652;BME280;5374;42.742;23.266;2023-02-21T11:52:07;95441.81;;;21.09;27.13
10652;BME280;5374;42.742;23.266;2023-02-21T11:54:57;95401.94;;;20.89;27.63
10652;BME280;5374;42.742;23.266;2023-02-21T11:57:49;95433.56;;;21.14;27.25
10652;BME280;5374;42.742;23.266;2023-02-21T12:00:47;95425.75;;;21.04;27.75
10652;BME280;5374;42.742;23.266;2023-02-21T12:04:03;95423.53;;;20.89;26.79
10652;BME280;5374;42.742;23.266;2023-02-21T12:07:01;95408.91;;;20.90;27.59
10652;BME280;5374;42.742;23.266;2023-02-21T12:09:56;95403.84;;;20.97;27.65
10652;BME280;5374;42.742;23.266;2023-02-21T12:12:51;95394.94;;;21.05;27.88
10652;BME280;5374;42.742;23.266;2023-02-21T12:15:49;95395.41;;;20.90;27.17
10652;BME280;5374;42.742;23.266;2023-02-21T12:18:55;95384.47;;;20.78;27.59
10652;BME280;5374;42.742;23.266;2023-02-21T12:22:00;95385.25;;;20.78;27.49
10652;BME280;5374;42.742;23.266;2023-02-21T12:25:01;95372.22;;;20.72;27.24
10652;BME280;5374;42.742;23.266;2023-02-21T12:28:00;95371.41;;;20.80;27.82
10652;BME280;5374;42.742;23.266;2023-02-21T12:31:07;95343.63;;;20.71;27.49
10652;BME280;5374;42.742;23.266;2023-02-21T12:34:08;95360.78;;;20.75;27.54
10652;BME280;5374;42.742;23.266;2023-02-21T12:37:19;95363.78;;;20.65;27.88
10652;BME280;5374;42.742;23.266;2023-02-21T12:40:18;95359.31;;;20.52;27.25
10652;BME280;5374;42.742;23.266;2023-02-21T12:43:26;95354.88;;;20.47;27.29
10652;BME280;5374;42.742;23.266;2023-02-21T12:46:30;95337.19;;;20.32;27.12
10652;BME280;5374;42.742;23.266;2023-02-21T12:49:23;95353.31;;;20.55;27.15
10652;BME280;5374;42.742;23.266;2023-02-21T12:52:14;95351.19;;;20.43;27.59
10652;BME280;5374;42.742;23.266;2023-02-21T12:55:06;95336.53;;;20.35;27.71
10652;BME280;5374;42.742;23.266;2023-02-21T12:58:01;95339.47;;;20.47;27.34
10652;BME280;5374;42.742;23.266;2023-02-21T13:00:53;95342.50;;;20.55;27.26
10652;BME280;5374;42.742;23.266;2023-02-21T13:03:52;95338.84;;;20.59;27.05
10652;BME280;5374;42.742;23.266;2023-02-21T13:06:45;95347.25;;;20.58;26.73
10652;BME280;5374;42.742;23.266;2023-02-21T13:09:36;95334.09;;;20.65;27.58
10652;BME280;5374;42.742;23.266;2023-02-21T13:12:25;95336.16;;;20.68;27.45
10652;BME280;5374;42.742;23.266;2023-02-21T13:15:18;95332.03;;;20.62;27.43
10652;BME280;5374;42.742;23.266;2023-02-21T13:18:10;95320.94;;;20.55;26.77
10652;BME280;5374;42.742;23.266;2023-02-21T13:21:11;95332.97;;;20.48;26.82
10652;BME280;5374;42.742;23.266;2023-02-21T13:24:23;95327.34;;;20.36;27.01
10652;BME280;5374;42.742;23.266;2023-02-21T13:27:45;95308.78;;;20.26;27.02
10652;BME280;5374;42.742;23.266;2023-02-21T13:30:38;95310.03;;;20.20;27.35
10652;BME280;5374;42.742;23.266;2023-02-21T13:33:34;95311.94;;;20.20;27.58
10652;BME280;5374;42.742;23.266;2023-02-21T13:36:26;95311.47;;;20.26;27.72
10652;BME280;5374;42.742;23.266;2023-02-21T13:39:16;95305.59;;;20.24;27.79
10652;BME280;5374;42.742;23.266;2023-02-21T13:42:08;95309.53;;;20.18;27.67
10652;BME280;5374;42.742;23.266;2023-02-21T13:45:08;95299.06;;;20.17;26.85
10652;BME280;5374;42.742;23.266;2023-02-21T13:48:25;95301.75;;;20.08;26.51
10652;BME280;5374;42.742;23.266;2023-02-21T13:51:47;95297.28;;;20.03;26.24
10652;BME280;5374;42.742;23.266;2023-02-21T13:55:19;95291.06;;;19.94;27.48
10652;BME280;5374;42.742;23.266;2023-02-21T14:01:50;95288.38;;;19.86;26.33
10652;BME280;5374;42.742;23.266;2023-02-21T14:05:00;95295.44;;;19.73;26.86
10652;BME280;5374;42.742;23.266;2023-02-21T14:07:55;95290.03;;;19.73;26.62
10652;BME280;5374;42.742;23.266;2023-02-21T14:10:45;95273.41;;;19.48;27.17
10652;BME280;5374;42.742;23.266;2023-02-21T14:13:36;95277.44;;;19.51;27.29
10652;BME280;5374;42.742;23.266;2023-02-21T14:16:28;95295.66;;;19.54;27.14
10652;BME280;5374;42.742;23.266;2023-02-21T14:19:22;95299.47;;;19.53;26.95
10652;BME280;5374;42.742;23.266;2023-02-21T14:22:13;95296.03;;;19.39;26.84
10652;BME280;5374;42.742;23.266;2023-02-21T14:25:12;95295.06;;;19.35;26.74
10652;BME280;5374;42.742;23.266;2023-02-21T14:31:55;95293.19;;;19.13;27.06
10652;BME280;5374;42.742;23.266;2023-02-21T14:34:51;95284.69;;;18.97;26.98
10652;BME280;5374;42.742;23.266;2023-02-21T14:37:41;95279.66;;;19.04;27.19
10652;BME280;5374;42.742;23.266;2023-02-21T14:40:43;95282.47;;;18.99;27.18
10652;BME280;5374;42.742;23.266;2023-02-21T14:43:46;95279.13;;;18.94;27.14
10652;BME280;5374;42.742;23.266;2023-02-21T14:50:11;95267.44;;;18.76;27.53
10652;BME280;5374;42.742;23.266;2023-02-21T14:53:45;95272.75;;;18.67;27.42
10652;BME280;5374;42.742;23.266;2023-02-21T14:56:46;95279.66;;;18.60;27.66
10652;BME280;5374;42.742;23.266;2023-02-21T14:59:59;95284.59;;;18.53;27.85
10652;BME280;5374;42.742;23.266;2023-02-21T15:02:57;95271.31;;;18.48;28.04
10652;BME280;5374;42.742;23.266;2023-02-21T15:05:55;95277.28;;;18.44;28.14
10652;BME280;5374;42.742;23.266;2023-02-21T15:08:47;95273.50;;;18.32;28.04
10652;BME280;5374;42.742;23.266;2023-02-21T15:11:35;95271.84;;;18.22;28.75
10652;BME280;5374;42.742;23.266;2023-02-21T15:14:27;95262.41;;;18.11;28.27
10652;BME280;5374;42.742;23.266;2023-02-21T15:17:17;95270.25;;;18.07;28.36
10652;BME280;5374;42.742;23.266;2023-02-21T15:20:13;95255.06;;;17.89;28.61
10652;BME280;5374;42.742;23.266;2023-02-21T15:23:06;95266.22;;;17.83;28.69
10652;BME280;5374;42.742;23.266;2023-02-21T15:25:59;95277.78;;;17.83;28.44
10652;BME280;5374;42.742;23.266;2023-02-21T15:29:03;95271.66;;;17.64;28.67
10652;BME280;5374;42.742;23.266;2023-02-21T15:31:54;95282.69;;;17.62;28.99
10652;BME280;5374;42.742;23.266;2023-02-21T15:34:45;95285.56;;;17.52;29.17
10652;BME280;5374;42.742;23.266;2023-02-21T15:37:35;95285.66;;;17.47;29.12
10652;BME280;5374;42.742;23.266;2023-02-21T15:40:24;95291.22;;;17.37;29.11
10652;BME280;5374;42.742;23.266;2023-02-21T15:43:27;95291.19;;;17.23;29.40
10652;BME280;5374;42.742;23.266;2023-02-21T15:46:18;95290.06;;;17.11;29.79